Latest Weather Observations for Taree Airport

IDN60801

Issued at 7:33 pm EDT Wednesday 25 November 2020 (issued every 10 minutes, with the page automatically refreshed every 10 minutes)

About weather observations | Map of weather stations | Latest weather observations for NSW | Other Formats
Station Details ID: 060141 Name: TAREE AIRPORT AWS Lat: -31.89 Lon: 152.51 Height: 8.0 m
Data from the previous 72 hours. | See also: Recent months at Taree Airport
Date/Time
EDT
Temp
°C
App
Temp
°C
Dew
Point
°C
Rel
Hum
%
Delta-T
°C
Wind Press
QNH
hPa
Press
MSL
hPa
Rain since
9am
mm
Dir  Spd
km/h
Gust
km/h
Spd
kts
Gust
kts
25/07:30pm 20.4 20.1 15.4 73 3.0 ESE 11 15 6 8 1013.5 1013.5 0.0
25/07:00pm 21.2 20.5 15.3 69 3.5 ESE 13 17 7 9 1013.2 1013.2 0.0
25/06:30pm 21.6 19.9 14.7 65 4.1 ESE 17 26 9 14 1012.7 1012.7 0.0
25/06:00pm 21.9 20.0 14.3 62 4.4 E 17 26 9 14 1012.5 1012.5 0.0
25/05:30pm 22.6 20.1 14.2 59 4.9 ESE 20 28 11 15 1012.3 1012.3 0.0
25/05:00pm 22.6 20.0 13.9 58 5.1 E 20 28 11 15 1012.2 1012.2 0.0
25/04:30pm 23.1 20.6 14.1 57 5.3 ESE 20 30 11 16 1012.3 1012.3 0.0
25/04:00pm 23.5 20.7 13.1 52 6.0 ESE 20 28 11 15 1012.2 1012.2 0.0
25/03:30pm 24.6 22.1 14.1 52 6.2 ESE 20 30 11 16 1012.4 1012.4 0.0
25/03:00pm 23.9 20.7 13.2 51 6.2 ESE 22 30 12 16 1012.7 1012.7 0.0
25/02:30pm 24.2 21.5 13.4 51 6.3 ESE 20 32 11 17 1012.8 1012.8 0.0
25/02:00pm 23.6 20.7 12.9 51 6.2 ESE 20 28 11 15 1012.9 1012.9 0.0
25/01:30pm 24.2 21.1 12.2 47 6.8 ESE 20 28 11 15 1013.0 1013.0 0.0
25/01:00pm 25.2 21.7 12.1 44 7.5 E 22 30 12 16 1013.3 1013.3 0.0
25/12:30pm 23.6 20.4 11.3 46 6.9 ESE 19 26 10 14 1013.6 1013.6 0.0
25/12:00pm 23.8 20.8 11.8 47 6.8 ESE 19 28 10 15 1013.9 1013.9 0.0
25/11:30am 24.9 23.0 13.1 48 6.9 SE 15 28 8 15 1014.3 1014.3 0.0
25/11:00am 23.5 21.5 11.5 47 6.7 SSE 13 20 7 11 1014.6 1014.6 0.0
25/10:30am 23.7 23.2 12.7 50 6.3 SW 7 13 4 7 1014.9 1014.9 0.0
25/10:00am 22.5 21.2 11.3 49 6.2 E 9 17 5 9 1015.0 1015.0 0.0
25/09:30am 21.8 21.3 12.6 56 5.2 WSW 7 11 4 6 1015.1 1015.1 0.0
25/09:00am 21.2 20.3 11.2 53 5.5 SSE 7 15 4 8 1015.1 1015.1 0.0
25/08:30am 20.6 20.3 14.3 67 3.7 SW 9 13 5 7 1015.0 1015.0 0.0
25/08:00am 20.2 20.0 15.6 75 2.7 W 11 15 6 8 1014.9 1014.9 0.0
25/07:30am 18.6 18.2 15.1 80 2.0 W 11 15 6 8 1014.7 1014.7 0.0
25/07:00am 17.3 17.3 15.1 87 1.3 W 9 15 5 8 1014.3 1014.3 0.0
25/06:30am 15.8 15.5 14.3 91 0.9 W 9 11 5 6 1014.1 1014.1 0.0
25/06:00am 15.1 14.7 14.1 94 0.6 W 9 13 5 7 1013.8 1013.8 0.0
25/05:30am 15.0 14.6 14.0 94 0.6 W 9 11 5 6 1013.4 1013.4 0.0
25/05:00am 15.1 14.3 14.1 94 0.6 W 11 13 6 7 1013.1 1013.1 0.0
25/04:30am 15.5 14.8 14.4 93 0.6 W 11 13 6 7 1012.9 1012.9 0.0
25/04:00am 15.7 15.1 14.6 93 0.6 W 11 13 6 7 1012.8 1012.8 0.0
25/03:30am 15.9 15.7 14.6 92 0.7 W 9 9 5 5 1012.8 1012.8 0.0
25/03:00am 16.3 16.1 14.8 91 0.9 W 9 11 5 6 1012.7 1012.7 0.0
25/02:30am 16.8 17.1 15.0 89 1.0 WSW 7 9 4 5 1012.7 1012.7 0.0
25/02:00am 16.9 16.8 14.9 88 1.2 W 9 11 5 6 1012.8 1012.8 0.0
25/01:30am 17.4 17.7 15.0 86 1.4 W 7 7 4 4 1013.1 1013.1 0.0
25/01:00am 18.0 18.4 15.3 84 1.6 WSW 7 9 4 5 1013.2 1013.2 0.0
25/12:30am 18.1 18.4 15.0 82 1.8 W 7 9 4 5 1013.5 1013.5 0.0
25/12:00am 18.5 19.1 15.2 81 1.9 WNW 6 7 3 4 1013.7 1013.7 0.0
 
Date/Time
EDT
Temp
°C
App
Temp
°C
Dew
Point
°C
Rel
Hum
%
Delta-T
°C
Wind Press
QNH
hPa
Press
MSL
hPa
Rain since
9am
mm
Dir  Spd
km/h
Gust
km/h
Spd
kts
Gust
kts
24/11:30pm 18.7 18.6 15.0 79 2.2 NW 9 9 5 5 1013.7 1013.7 0.0
24/11:00pm 19.5 20.0 15.6 78 2.3 W 7 9 4 5 1013.8 1013.8 0.0
24/10:30pm 19.4 19.2 15.7 79 2.2 WSW 11 15 6 8 1013.8 1013.8 0.0
24/10:00pm 18.5 18.2 15.4 82 1.8 SW 11 11 6 6 1013.7 1013.7 0.0
24/09:30pm 18.9 18.9 15.2 79 2.2 SSW 9 11 5 6 1013.5 1013.5 0.0
24/09:00pm 19.1 19.0 15.0 77 2.4 S 9 13 5 7 1013.2 1013.2 0.0
24/08:30pm 19.6 18.7 14.8 74 2.8 S 13 20 7 11 1012.8 1012.8 0.0
24/08:00pm 20.1 19.1 14.5 70 3.3 SSE 13 19 7 10 1012.3 1012.3 0.0
24/07:30pm 20.0 19.2 14.1 69 3.4 SE 11 17 6 9 1011.7 1011.7 0.0
24/07:00pm 21.2 19.6 13.9 63 4.2 SSE 15 22 8 12 1010.9 1010.8 0.0
24/06:30pm 21.5 18.9 13.7 61 4.5 SSE 20 28 11 15 1010.3 1010.2 0.0
24/06:00pm 21.9 18.7 14.3 62 4.5 SSE 24 33 13 18 1009.8 1009.7 0.0
24/05:30pm 22.7 19.0 12.6 53 5.8 SSE 24 35 13 19 1009.5 1009.4 0.0
24/05:00pm 23.2 19.0 13.4 54 5.7 SSE 28 39 15 21 1009.6 1009.5 0.0
24/04:30pm 23.4 18.1 12.4 50 6.3 SSE 32 41 17 22 1009.4 1009.3 0.0
24/04:02pm 24.0 18.9 13.2 50 6.3 SSE 32 50 17 27 1009.5 1009.4 0.0
24/04:00pm 23.5 17.6 12.5 50 6.3 SSE 35 50 19 27 1009.5 1009.4 0.0
24/03:30pm 24.3 18.8 12.6 48 6.7 SSE 33 43 18 23 1009.4 1009.3 0.0
24/03:00pm 24.1 19.2 12.7 49 6.6 SSE 30 39 16 21 1009.4 1009.3 0.0
24/02:30pm 25.0 20.6 14.2 51 6.4 SE 30 37 16 20 1009.3 1009.2 0.0
24/02:00pm 24.7 19.9 13.9 51 6.4 SE 32 43 17 23 1009.4 1009.3 0.0
24/01:30pm 24.0 20.6 13.8 53 6.0 SE 24 33 13 18 1009.7 1009.6 0.0
24/01:00pm 25.6 22.8 14.4 50 6.7 SSW 22 33 12 18 1010.0 1009.9 0.0
24/12:30pm 25.4 21.4 12.9 45 7.3 S 26 33 14 18 1010.3 1010.2 0.0
24/12:00pm 24.4 21.2 13.0 49 6.6 S 22 32 12 17 1010.6 1010.5 0.0
24/11:30am 23.9 20.7 13.2 51 6.2 S 22 37 12 20 1010.6 1010.5 0.0
24/11:00am 23.8 20.2 13.1 51 6.2 S 24 32 13 17 1010.5 1010.4 0.0
24/10:30am 24.2 21.9 14.6 55 5.7 S 20 28 11 15 1010.6 1010.5 0.0
24/10:00am 23.5 20.9 13.7 54 5.7 S 20 28 11 15 1010.8 1010.7 0.0
24/09:30am 23.0 18.8 13.5 55 5.5 SSW 28 37 15 20 1010.7 1010.6 0.0
24/09:00am 22.4 19.2 14.3 60 4.8 S 24 33 13 18 1010.8 1010.7 0.6
24/08:30am 22.2 18.6 14.3 61 4.6 SSW 26 35 14 19 1010.8 1010.7 0.6
24/08:00am 21.8 20.7 15.4 67 3.8 SW 15 20 8 11 1010.5 1010.4 0.6
24/07:30am 20.4 19.7 15.4 73 3.0 SW 13 24 7 13 1010.1 1010.0 0.6
24/07:00am 20.0 19.3 15.4 75 2.7 SW 13 17 7 9 1009.9 1009.8 0.6
24/06:30am 19.6 19.4 15.7 78 2.3 WSW 11 15 6 8 1009.6 1009.5 0.6
24/06:00am 19.0 19.1 15.5 80 2.1 WSW 9 13 5 7 1009.1 1009.0 0.6
24/05:30am 18.7 19.0 15.0 79 2.2 WNW 7 9 4 5 1008.6 1008.5 0.6
24/05:00am 19.0 19.3 15.1 78 2.3 WSW 7 11 4 6 1008.5 1008.4 0.6
24/04:30am 19.3 19.4 15.4 78 2.3 WSW 9 15 5 8 1008.3 1008.2 0.6
24/04:00am 19.6 18.9 15.5 77 2.4 WSW 13 17 7 9 1008.5 1008.4 0.6
24/03:30am 20.0 19.0 15.6 76 2.6 SSW 15 28 8 15 1008.4 1008.3 0.6
24/03:00am 19.7 19.2 16.0 79 2.2 SSW 13 17 7 9 1008.3 1008.2 0.6
24/02:30am 20.2 18.8 15.6 75 2.7 S 17 26 9 14 1008.5 1008.4 0.6
24/02:00am 20.7 20.1 15.7 73 3.0 S 13 17 7 9 1008.3 1008.2 0.6
24/01:30am 21.4 19.8 15.9 71 3.3 S 19 32 10 17 1008.0 1007.9 0.6
24/01:00am 22.2 21.3 16.9 72 3.2 SSE 17 24 9 13 1007.3 1007.2 0.6
24/12:30am 23.4 23.7 16.0 63 4.5 SW 9 11 5 6 1006.5 1006.4 0.6
24/12:00am 24.2 24.0 15.7 59 5.2 WSW 11 15 6 8 1005.9 1005.8 0.6
 
Date/Time
EDT
Temp
°C
App
Temp
°C
Dew
Point
°C
Rel
Hum
%
Delta-T
°C
Wind Press
QNH
hPa
Press
MSL
hPa
Rain since
9am
mm
Dir  Spd
km/h
Gust
km/h
Spd
kts
Gust
kts
23/11:30pm 24.6 24.4 15.8 58 5.3 SW 11 15 6 8 1006.0 1005.9 0.6
23/11:00pm 24.5 23.9 15.7 58 5.3 WNW 13 24 7 13 1005.9 1005.8 0.6
23/10:30pm 21.8 25.1 19.0 84 1.8 CALM 0 0 0 0 1006.2 1006.1 0.6
23/10:00pm 21.7 23.8 19.3 86 1.5 NNW 7 15 4 8 1006.5 1006.4 0.6
23/09:30pm 21.7 23.0 19.4 87 1.5 N 11 15 6 8 1006.2 1006.1 0.6
23/09:00pm 21.7 23.6 19.8 89 1.2 N 9 15 5 8 1006.8 1006.7 0.6
23/08:30pm 21.9 24.1 19.6 87 1.5 SW 7 11 4 6 1006.8 1006.7 0.4
23/08:00pm 22.2 24.5 19.9 87 1.5 SE 7 9 4 5 1006.9 1006.8 0.2
23/07:30pm 23.4 26.1 19.5 79 2.5 ESE 4 11 2 6 1006.7 1006.6 0.0
23/07:00pm 24.1 27.2 18.7 72 3.4 CALM 0 6 0 3 1006.7 1006.6 0.0
23/06:30pm 24.0 25.7 18.6 72 3.4 ENE 7 13 4 7 1006.3 1006.2 0.0
23/06:00pm 24.3 25.2 18.5 70 3.7 ENE 11 15 6 8 1005.7 1005.6 0.0
23/05:30pm 24.7 25.4 17.9 66 4.3 ENE 11 13 6 7 1005.8 1005.7 0.0
23/05:00pm 26.3 25.8 17.9 60 5.3 SE 17 24 9 13 1006.0 1005.9 0.0
23/04:30pm 26.5 25.7 17.0 56 5.9 SE 17 22 9 12 1006.1 1006.0 0.0
23/04:00pm 26.7 27.0 18.0 59 5.5 SE 13 17 7 9 1006.0 1005.9 0.0
23/03:30pm 27.4 25.1 17.6 55 6.2 SE 26 35 14 19 1005.7 1005.6 0.0
23/03:00pm 29.0 29.4 18.1 51 7.0 ENE 13 19 7 10 1005.2 1005.1 0.0
23/02:30pm 28.6 29.2 17.8 52 6.9 ESE 11 19 6 10 1005.5 1005.4 0.0
23/02:00pm 27.1 27.7 17.6 56 6.0 ESE 11 17 6 9 1006.0 1005.9 0.0
23/01:30pm 26.8 27.1 17.8 57 5.7 E 13 19 7 10 1006.3 1006.2 0.0
23/01:00pm 26.2 26.5 17.8 60 5.3 SE 13 19 7 10 1006.9 1006.8 0.0
23/12:30pm 26.4 25.8 17.5 58 5.6 SE 17 22 9 12 1007.2 1007.1 0.0
23/12:00pm 26.9 26.8 17.9 57 5.7 SE 15 24 8 13 1007.8 1007.7 0.0
23/11:30am 26.4 25.9 17.7 58 5.5 ESE 17 26 9 14 1008.2 1008.1 0.0
23/11:00am 27.0 26.0 17.5 56 6.0 SE 19 24 10 13 1008.5 1008.4 0.0
23/10:30am 29.0 27.7 17.2 49 7.4 SE 20 26 11 14 1008.7 1008.6 0.0
23/10:00am 30.5 30.0 15.8 41 9.1 SSE 13 17 7 9 1009.1 1009.0 0.0
23/09:30am 28.6 28.2 16.2 47 7.7 SSE 13 19 7 10 1009.2 1009.1 0.0
23/09:00am 27.2 26.8 17.1 54 6.3 SSE 15 19 8 10 1009.6 1009.5 0.0
23/08:30am 27.3 28.4 18.0 56 5.9 S 9 15 5 8 1009.5 1009.4 0.0
23/08:00am 23.2 22.9 18.3 74 3.1 S 17 22 9 12 1009.8 1009.7 0.0
23/07:30am 21.9 23.1 17.3 75 2.8 WNW 7 9 4 5 1009.1 1009.0 0.0
23/07:00am 21.6 23.2 17.8 79 2.4 SW 6 9 3 5 1009.0 1008.9 0.0
23/06:30am 21.9 22.7 17.3 75 2.8 NNW 9 13 5 7 1009.1 1009.0 0.0
23/06:00am 20.2 20.6 18.1 88 1.3 NE 13 15 7 8 1009.1 1009.0 0.0
23/05:30am 21.3 23.1 18.3 83 1.9 W 6 9 3 5 1009.8 1009.7 0.0
23/05:00am 20.1 22.4 17.7 86 1.5 N 2 11 1 6 1009.3 1009.2 0.0
23/04:30am 20.8 22.2 17.4 81 2.1 NNW 6 7 3 4 1009.6 1009.5 0.0
23/04:00am 20.4 23.1 17.8 85 1.6 CALM 0 0 0 0 1009.1 1009.0 0.0
23/03:30am 20.6 23.6 18.5 88 1.3 CALM 0 7 0 4 1009.2 1009.1 0.0
23/03:00am 19.5 22.3 18.0 91 0.9 CALM 0 4 0 2 1009.1 1009.0 0.0
23/02:30am 19.7 22.1 18.0 90 1.0 NNE 2 7 1 4 1009.5 1009.4 0.0
23/02:00am 19.1 20.5 17.4 90 1.0 NNE 6 7 3 4 1009.7 1009.6 0.0
23/01:30am 20.0 22.4 17.0 83 1.8 CALM 0 0 0 0 1010.0 1009.9 0.0
23/01:00am 22.6 24.4 17.5 73 3.2 W 4 7 2 4 1010.8 1010.7 0.0
23/12:30am 21.4 24.3 18.2 82 2.0 CALM 0 0 0 0 1011.2 1011.2 0.0
23/12:00am 21.3 24.2 18.3 83 1.9 CALM 0 0 0 0 1011.7 1011.7 0.0
 
Date/Time
EDT
Temp
°C
App
Temp
°C
Dew
Point
°C
Rel
Hum
%
Delta-T
°C
Wind Press
QNH
hPa
Press
MSL
hPa
Rain since
9am
mm
Dir  Spd
km/h
Gust
km/h
Spd
kts
Gust
kts
22/11:30pm 22.2 24.9 17.8 76 2.7 CALM 0 4 0 2 1012.4 1012.4 0.0
22/11:00pm 22.2 25.0 18.0 77 2.6 CALM 0 0 0 0 1013.0 1013.0 0.0
22/10:30pm 23.2 24.6 17.7 71 3.4 WSW 7 9 4 5 1013.9 1013.9 0.0
22/10:00pm 22.4 24.1 18.0 76 2.7 ENE 6 11 3 6 1014.1 1014.1 0.0
22/09:30pm 23.0 25.5 17.2 70 3.6 CALM 0 0 0 0 1014.8 1014.8 0.0
22/09:00pm 23.8 23.6 16.6 64 4.4 NE 13 17 7 9 1014.8 1014.8 0.0
22/08:30pm 24.5 24.0 17.7 66 4.2 NNW 17 32 9 17 1015.0 1015.0 0.0
22/08:19pm 24.7 23.1 18.4 68 4.0 NW 24 43 13 23 1015.3 1015.3 0.0
22/08:00pm 23.3 25.3 19.9 81 2.2 NNW 9 13 5 7 1014.5 1014.5 0.0

Other formats

Comma delimited format used in spreadsheet applications
http://www.bom.gov.au/fwo/IDN60801/IDN60801.95784.axf

JavaScript Object Notation format (JSON) in row-major order
http://www.bom.gov.au/fwo/IDN60801/IDN60801.95784.json

Data quality

Most of these data are generated automatically and are frequently updated. Quality checks on data are not normally performed. It is possible for incorrect values to appear. Refer to information at About Latest Weather Observations and please check the disclaimer before using these data.